RYNDS weather

Reynolds Field
Penrose, Arkansas, United States

Public forecast

Using degrees Fahrenheit for public forecast. Weather courtesy of forecast.io.

Closest aviation weather report (METAR) to Reynolds Field

Closest report is Newport Regional Airport, 27.4 nm (50.8 km) N. Retrieved UTC (0 seconds ago):

Closest aviation forecast (TAF) to Reynolds Field

Closest forecast is Jonesboro Municipal Airport, 43.7 nm (81.0 km) NNE. Retrieved 2020/01/29 12:42 UTC (2 hours ago):

TAF KJBR 291140Z 2912/3012 06005KT 6SM BR VCSH OVC005 FM292100 04006KT P6SM OVC011 FM300800 02004KT P6SM OVC008